Time;durP1;ratioP1;P1;durP2;ratioP2;P2;SDS_P1;SDS_P2;PMS_P1;PMS_P2;Temp;Humidity;BMP_temperature;BMP_pressure;BME280_temperature;BME280_humidity;BME280_pressure;Samples;Min_cycle;Max_cycle;Signal;HPM_P1;HPM_P2
2023/06/23 00:01:22;;;;;;;52.15;50.10;;;16.60;99.30;;;;;;5076507;28;20043;-75
2023/06/23 00:03:48;;;;;;;54.45;52.33;;;16.70;99.10;;;;;;5078570;28;20031;-74
2023/06/23 00:06:14;;;;;;;68.95;65.88;;;16.70;98.60;;;;;;5073021;28;20028;-75
2023/06/23 00:08:40;;;;;;;43.78;41.97;;;16.70;98.30;;;;;;5078707;28;20047;-75
2023/06/23 00:11:10;;;;;;;51.75;49.60;;;16.70;98.20;;;;;;5079751;28;20151;-74
2023/06/23 00:13:37;;;;;;;40.67;38.93;;;16.70;98.50;;;;;;5071059;28;20487;-75
2023/06/23 00:16:06;;;;;;;35.35;33.60;;;16.70;98.50;;;;;;5073599;28;20275;-75
2023/06/23 00:18:36;;;;;;;71.03;68.07;;;16.70;98.70;;;;;;5075390;28;20502;-74
2023/06/23 00:21:08;;;;;;;60.60;57.90;;;16.70;98.70;;;;;;5073109;28;20037;-74
2023/06/23 00:23:34;;;;;;;36.78;35.08;;;16.60;99.00;;;;;;5072697;28;20040;-76
2023/06/23 00:26:01;;;;;;;50.33;48.10;;;16.50;98.80;;;;;;5058862;28;20040;-76
2023/06/23 00:28:27;;;;;;;41.00;39.25;;;16.50;99.60;;;;;;5077609;28;20063;-75
2023/06/23 00:30:55;;;;;;;62.17;59.53;;;16.50;99.10;;;;;;5074793;28;20067;-75
2023/06/23 00:33:21;;;;;;;73.82;71.00;;;16.40;99.90;;;;;;5060524;28;20508;-76
2023/06/23 00:35:47;;;;;;;59.95;57.08;;;16.40;99.90;;;;;;5073303;28;20036;-75
2023/06/23 00:38:13;;;;;;;106.60;101.43;;;16.30;99.90;;;;;;5056905;28;20170;-76
2023/06/23 00:40:40;;;;;;;46.95;44.83;;;16.30;99.90;;;;;;5075513;28;20063;-74
2023/06/23 00:43:06;;;;;;;69.93;66.93;;;16.20;99.90;;;;;;5074556;28;20040;-75
2023/06/23 00:45:31;;;;;;;83.03;78.95;;;16.20;99.90;;;;;;5073282;28;20039;-76
2023/06/23 00:47:57;;;;;;;57.90;55.58;;;16.20;99.90;;;;;;5072393;28;20024;-75
2023/06/23 00:50:24;;;;;;;67.10;63.67;;;16.10;99.90;;;;;;5077035;28;20491;-75
2023/06/23 00:52:51;;;;;;;57.08;54.65;;;16.00;99.90;;;;;;5076219;28;20169;-75
2023/06/23 00:55:21;;;;;;;43.10;41.25;;;16.00;99.90;;;;;;5077449;28;20035;-76
2023/06/23 00:57:48;;;;;;;32.93;31.37;;;15.90;99.90;;;;;;5073518;28;20581;-76
2023/06/23 01:00:17;;;;;;;46.25;44.15;;;15.80;99.90;;;;;;5089358;28;20024;-75
2023/06/23 01:02:50;;;;;;;41.78;39.92;;;15.70;99.90;;;;;;5073511;28;20032;-76
2023/06/23 01:05:25;;;;;;;29.10;27.60;;;15.70;99.90;;;;;;5090200;28;20044;-76
2023/06/23 01:08:10;;;;;;;39.75;37.75;;;15.60;99.90;;;;;;5075846;28;20032;-76
2023/06/23 01:10:56;;;;;;;44.55;42.67;;;15.60;99.90;;;;;;5071761;28;20040;-76
2023/06/23 01:13:40;;;;;;;37.90;36.20;;;15.60;99.90;;;;;;5076115;28;20030;-76
2023/06/23 01:16:11;;;;;;;41.78;39.80;;;15.60;99.90;;;;;;5072455;28;20462;-76
2023/06/23 01:18:56;;;;;;;41.88;39.75;;;15.60;99.90;;;;;;5078319;28;20098;-76
2023/06/23 01:21:39;;;;;;;58.47;55.67;;;15.50;99.90;;;;;;5072457;28;20024;-76
2023/06/23 01:24:33;;;;;;;37.13;35.35;;;15.40;99.90;;;;;;5071753;28;20134;-75
2023/06/23 01:27:39;;;;;;;33.83;32.22;;;15.50;99.90;;;;;;4955850;28;20093;-75
2023/06/23 01:30:09;;;;;;;35.47;33.75;;;15.40;99.90;;;;;;5073319;28;20047;-76
2023/06/23 01:32:43;;;;;;;42.33;37.75;;;15.50;99.90;;;;;;5075972;28;20025;-75
2023/06/23 01:35:18;;;;;;;31.27;29.42;;;15.50;99.90;;;;;;5073394;28;20103;-75
2023/06/23 01:37:47;;;;;;;33.45;31.83;;;15.50;99.90;;;;;;5076026;28;20027;-75
2023/06/23 01:40:17;;;;;;;32.33;30.63;;;15.50;99.90;;;;;;5051988;28;20025;-75
2023/06/23 01:42:48;;;;;;;35.45;33.90;;;15.50;99.90;;;;;;5074593;28;20540;-75
2023/06/23 01:45:16;;;;;;;52.10;48.28;;;15.40;99.90;;;;;;5075778;28;20032;-75
2023/06/23 01:47:48;;;;;;;37.97;36.25;;;15.40;99.90;;;;;;5078842;28;20063;-75
2023/06/23 01:50:16;;;;;;;34.45;32.90;;;15.40;99.90;;;;;;5070500;28;20032;-75
2023/06/23 01:52:44;;;;;;;31.38;29.70;;;15.40;99.90;;;;;;5077665;28;20024;-75
2023/06/23 01:55:12;;;;;;;53.10;50.22;;;15.40;99.90;;;;;;5074000;28;20040;-75
2023/06/23 01:57:39;;;;;;;31.80;30.17;;;15.40;99.90;;;;;;5076702;28;20112;-75
2023/06/23 02:00:13;;;;;;;32.55;30.75;;;15.40;99.90;;;;;;5073372;28;20035;-75
2023/06/23 02:02:44;;;;;;;31.95;30.42;;;15.40;99.90;;;;;;5073947;28;20074;-75
2023/06/23 02:05:11;;;;;;;53.83;50.92;;;15.40;99.90;;;;;;5070954;28;20526;-76
2023/06/23 02:07:40;;;;;;;57.60;55.05;;;15.40;99.90;;;;;;5072218;28;20559;-76
2023/06/23 02:10:07;;;;;;;41.95;39.53;;;15.40;99.90;;;;;;5073119;28;20044;-75
2023/06/23 02:12:39;;;;;;;54.72;52.03;;;15.40;99.90;;;;;;5074305;28;20040;-76
2023/06/23 02:15:06;;;;;;;37.25;35.20;;;15.40;99.90;;;;;;5052109;28;20040;-76
2023/06/23 02:17:36;;;;;;;83.03;78.22;;;15.40;99.90;;;;;;5075797;28;20021;-76
2023/06/23 02:20:09;;;;;;;145.93;136.88;;;15.40;99.90;;;;;;5074129;28;20070;-77
2023/06/23 02:22:37;;;;;;;69.53;65.85;;;15.40;99.90;;;;;;5083427;28;20053;-76
2023/06/23 02:25:04;;;;;;;69.07;65.88;;;15.40;99.90;;;;;;5075684;28;20796;-76
2023/06/23 02:27:30;;;;;;;49.38;47.05;;;15.40;99.90;;;;;;5074983;28;20032;-76
2023/06/23 02:29:58;;;;;;;52.75;50.25;;;15.40;99.90;;;;;;5075728;28;20036;-76
2023/06/23 02:32:25;;;;;;;54.28;51.67;;;15.40;99.90;;;;;;5077587;28;20085;-76
2023/06/23 02:34:51;;;;;;;35.17;33.65;;;15.40;99.90;;;;;;5051208;28;20245;-76
2023/06/23 02:37:23;;;;;;;39.13;37.22;;;15.40;99.90;;;;;;5055665;28;20838;-76
2023/06/23 02:40:16;;;;;;;33.20;31.65;;;15.40;99.90;;;;;;5071161;28;20706;-76
2023/06/23 02:42:51;;;;;;;30.70;28.85;;;15.40;99.90;;;;;;5074591;28;20060;-76
2023/06/23 02:45:22;;;;;;;87.25;79.30;;;15.40;99.90;;;;;;5072946;28;20032;-76
2023/06/23 02:47:52;;;;;;;50.53;47.40;;;15.30;99.90;;;;;;5069086;28;20555;-75
2023/06/23 02:50:22;;;;;;;28.08;25.95;;;15.30;99.90;;;;;;5076566;28;20044;-76
2023/06/23 02:52:54;;;;;;;31.92;30.02;;;15.30;99.90;;;;;;5072016;28;20039;-77
2023/06/23 02:55:21;;;;;;;31.08;29.50;;;15.30;99.90;;;;;;5072722;28;20047;-76
2023/06/23 02:57:50;;;;;;;34.25;32.13;;;15.30;99.90;;;;;;5047175;28;20029;-76
2023/06/23 03:00:22;;;;;;;59.75;55.55;;;15.30;99.90;;;;;;5071540;28;20584;-76
2023/06/23 03:02:53;;;;;;;24.75;22.98;;;15.30;99.90;;;;;;5069566;28;20039;-77
2023/06/23 03:05:21;;;;;;;28.00;26.55;;;15.30;99.90;;;;;;5070266;28;20082;-80
2023/06/23 03:07:49;;;;;;;24.58;23.20;;;15.40;99.90;;;;;;5052666;28;20115;-77
2023/06/23 03:10:15;;;;;;;28.50;26.27;;;15.30;99.90;;;;;;5072168;28;20064;-77
2023/06/23 03:12:41;;;;;;;25.42;21.08;;;15.30;99.90;;;;;;5054989;28;20071;-79
2023/06/23 03:15:07;;;;;;;28.00;26.58;;;15.30;99.90;;;;;;5099858;28;20384;-79
2023/06/23 03:17:36;;;;;;;29.98;28.48;;;15.20;99.90;;;;;;5078861;28;20029;-78
2023/06/23 03:20:24;;;;;;;23.75;22.65;;;15.20;99.90;;;;;;5076144;28;20062;-77
2023/06/23 03:22:55;;;;;;;20.92;19.73;;;15.20;99.90;;;;;;5079601;28;20035;-77
2023/06/23 03:25:27;;;;;;;23.48;22.00;;;15.10;99.90;;;;;;5075630;28;20025;-76
2023/06/23 03:27:57;;;;;;;16.95;15.95;;;15.20;99.90;;;;;;5082781;28;20032;-77
2023/06/23 03:30:30;;;;;;;;;;;15.20;99.90;;;;;;5073167;28;20115;-77
2023/06/23 03:33:00;;;;;;;14.70;13.82;;;15.20;99.90;;;;;;5075712;28;19916;-76
2023/06/23 03:35:31;;;;;;;18.05;16.75;;;15.10;99.90;;;;;;5075488;28;20107;-76
2023/06/23 03:38:01;;;;;;;16.77;15.85;;;15.20;99.90;;;;;;5076111;28;20032;-78
2023/06/23 03:40:33;;;;;;;15.73;14.65;;;15.20;99.90;;;;;;5057358;28;20047;-77
2023/06/23 03:43:05;;;;;;;23.77;22.58;;;15.10;99.90;;;;;;5091676;28;20536;-76
2023/06/23 03:45:34;;;;;;;17.17;16.08;;;15.10;99.90;;;;;;5075676;28;20033;-76
2023/06/23 03:48:03;;;;;;;17.40;15.95;;;15.00;99.90;;;;;;5078587;28;20094;-76
2023/06/23 03:50:49;;;;;;;18.23;17.08;;;15.00;99.90;;;;;;5077004;28;20040;-76
2023/06/23 03:53:17;;;;;;;18.05;17.05;;;15.10;99.90;;;;;;5057602;28;20050;-77
2023/06/23 03:55:43;;;;;;;17.92;16.98;;;15.10;99.90;;;;;;5096382;28;20432;-76
2023/06/23 03:58:11;;;;;;;16.67;15.77;;;15.10;99.90;;;;;;5073789;28;20082;-76
2023/06/23 04:00:40;;;;;;;20.58;19.33;;;15.00;99.90;;;;;;5080283;28;20835;-76
2023/06/23 04:03:08;;;;;;;19.17;17.98;;;15.10;99.90;;;;;;5076824;28;20029;-78
2023/06/23 04:05:36;;;;;;;20.25;18.83;;;15.10;99.90;;;;;;5076153;28;20036;-76
2023/06/23 04:08:05;;;;;;;19.42;18.13;;;15.10;99.90;;;;;;5082467;28;20043;-76
2023/06/23 04:10:32;;;;;;;18.50;17.40;;;15.20;99.90;;;;;;5073229;28;20037;-75
2023/06/23 04:13:01;;;;;;;19.98;18.70;;;15.20;99.90;;;;;;5075340;28;20027;-75
2023/06/23 04:15:28;;;;;;;20.15;18.77;;;15.30;99.90;;;;;;5055515;28;20024;-76
2023/06/23 04:17:55;;;;;;;17.90;16.83;;;15.30;99.90;;;;;;5074815;28;20028;-75
2023/06/23 04:20:24;;;;;;;22.98;21.27;;;15.20;99.90;;;;;;5079428;28;20032;-76
2023/06/23 04:22:51;;;;;;;20.20;18.70;;;15.20;99.90;;;;;;5076923;28;20040;-76
2023/06/23 04:25:19;;;;;;;19.58;18.38;;;15.20;99.90;;;;;;5073802;28;20421;-75
2023/06/23 04:27:47;;;;;;;17.25;16.13;;;15.10;99.90;;;;;;5058136;28;20032;-75
2023/06/23 04:30:13;;;;;;;18.60;17.35;;;15.10;99.90;;;;;;5056436;28;20032;-76
2023/06/23 04:32:40;;;;;;;20.33;18.98;;;15.10;99.90;;;;;;5075697;28;20024;-76
2023/06/23 04:35:06;;;;;;;20.02;18.73;;;15.10;99.90;;;;;;5075318;28;20066;-76
2023/06/23 04:37:43;;;;;;;22.33;20.83;;;15.10;99.90;;;;;;5056428;28;20109;-76
2023/06/23 04:40:12;;;;;;;25.73;24.13;;;15.10;99.90;;;;;;5073973;28;20093;-76
2023/06/23 04:42:47;;;;;;;30.27;28.42;;;15.10;99.90;;;;;;5072914;28;20036;-75
2023/06/23 04:45:19;;;;;;;23.42;21.48;;;15.20;99.90;;;;;;5076520;28;20153;-74
2023/06/23 04:47:56;;;;;;;21.98;20.38;;;15.20;99.90;;;;;;5077709;28;20034;-76
2023/06/23 04:50:25;;;;;;;22.52;20.73;;;15.40;99.90;;;;;;5071986;28;20037;-75
2023/06/23 04:52:55;;;;;;;22.73;21.13;;;15.40;99.90;;;;;;5072298;28;20028;-74
2023/06/23 04:55:29;;;;;;;21.73;19.92;;;15.40;99.90;;;;;;5067869;28;20040;-75
2023/06/23 04:57:57;;;;;;;20.58;18.98;;;15.40;99.90;;;;;;5070714;28;20036;-75
2023/06/23 05:00:24;;;;;;;23.73;22.02;;;15.40;99.90;;;;;;5074616;28;20025;-75
2023/06/23 05:02:52;;;;;;;23.35;21.38;;;15.50;99.90;;;;;;5075263;28;20634;-75
2023/06/23 05:05:23;;;;;;;23.27;21.77;;;15.60;99.90;;;;;;5073954;28;20103;-75
2023/06/23 05:07:51;;;;;;;21.33;19.90;;;15.60;99.90;;;;;;5040286;28;20032;-75
2023/06/23 05:10:19;;;;;;;22.95;21.27;;;15.60;99.90;;;;;;5072416;28;20032;-75
2023/06/23 05:12:47;;;;;;;24.80;23.10;;;15.80;99.90;;;;;;5070592;28;20170;-74
2023/06/23 05:15:15;;;;;;;25.15;23.48;;;15.90;99.90;;;;;;5071863;28;20024;-74
2023/06/23 05:17:44;;;;;;;21.83;20.50;;;16.00;99.90;;;;;;5072423;28;20490;-74
2023/06/23 05:20:10;;;;;;;21.15;19.63;;;15.80;99.90;;;;;;5074162;28;20032;-73
2023/06/23 05:22:38;;;;;;;26.15;24.52;;;15.90;99.90;;;;;;5073887;28;20089;-72
2023/06/23 05:25:06;;;;;;;22.73;21.20;;;15.90;99.90;;;;;;5075925;28;20036;-75
2023/06/23 05:27:34;;;;;;;21.90;20.30;;;16.00;99.90;;;;;;5070101;28;20240;-76
2023/06/23 05:30:03;;;;;;;22.90;21.40;;;15.90;99.90;;;;;;5093422;28;20032;-76
2023/06/23 05:32:50;;;;;;;21.58;20.05;;;15.80;99.90;;;;;;5092131;28;20033;-76
2023/06/23 05:35:17;;;;;;;23.42;21.70;;;15.80;99.90;;;;;;5070550;28;20029;-78
2023/06/23 05:37:44;;;;;;;22.42;20.83;;;15.80;99.90;;;;;;5076844;28;20667;-74
2023/06/23 05:40:13;;;;;;;23.45;21.65;;;15.70;99.90;;;;;;5072807;28;20037;-74
2023/06/23 05:42:40;;;;;;;23.73;21.98;;;15.80;99.90;;;;;;5070893;28;20021;-80
2023/06/23 05:45:06;;;;;;;22.42;20.83;;;15.70;99.90;;;;;;5059060;28;20036;-79
2023/06/23 05:47:58;;;;;;;23.48;21.85;;;15.60;99.90;;;;;;5071689;28;20047;-79
2023/06/23 05:50:27;;;;;;;20.67;19.17;;;15.70;99.90;;;;;;5073592;28;20032;-79
2023/06/23 05:53:00;;;;;;;24.50;22.45;;;15.70;99.90;;;;;;5086214;28;20111;-77
2023/06/23 05:55:28;;;;;;;24.27;22.50;;;15.70;99.90;;;;;;5073241;28;20031;-81
2023/06/23 05:58:00;;;;;;;25.55;23.83;;;15.70;99.90;;;;;;5074395;28;20027;-79
2023/06/23 06:00:35;;;;;;;24.90;23.15;;;15.70;99.90;;;;;;5070982;28;20032;-79
2023/06/23 06:03:07;;;;;;;26.45;24.45;;;15.90;99.90;;;;;;5079305;28;20024;-79
2023/06/23 06:05:35;;;;;;;25.25;23.30;;;15.80;99.90;;;;;;5071771;28;20161;-80
2023/06/23 06:08:02;;;;;;;28.17;26.08;;;15.90;99.90;;;;;;5068458;28;20032;-80
2023/06/23 06:10:29;;;;;;;27.63;25.45;;;16.10;99.90;;;;;;5059542;28;20904;-78
2023/06/23 06:12:55;;;;;;;24.83;23.10;;;16.20;99.90;;;;;;5089709;28;20047;-79
2023/06/23 06:15:22;;;;;;;28.20;26.00;;;16.20;99.90;;;;;;5069198;28;20484;-77
2023/06/23 06:17:49;;;;;;;28.90;26.77;;;16.30;99.90;;;;;;5074523;28;20020;-79
2023/06/23 06:20:17;;;;;;;29.77;27.52;;;16.30;99.90;;;;;;5069893;28;20032;-78
2023/06/23 06:22:45;;;;;;;29.02;26.75;;;16.30;99.90;;;;;;5074984;28;20089;-79
2023/06/23 06:25:13;;;;;;;30.88;28.35;;;16.20;99.90;;;;;;5075339;28;20063;-81
2023/06/23 06:27:41;;;;;;;31.55;28.77;;;16.20;99.90;;;;;;5075130;28;20086;-80
2023/06/23 06:30:08;;;;;;;32.78;29.75;;;16.10;99.90;;;;;;5059257;28;20039;-80
2023/06/23 06:32:37;;;;;;;34.38;31.55;;;16.30;99.90;;;;;;5073878;28;20513;-81
2023/06/23 06:35:06;;;;;;;30.85;28.27;;;16.40;99.90;;;;;;5078523;28;20029;-80
2023/06/23 06:37:40;;;;;;;29.65;27.17;;;16.50;99.90;;;;;;5072731;28;20028;-80
2023/06/23 06:40:07;;;;;;;31.02;28.40;;;16.60;99.90;;;;;;5071452;28;20032;-80
2023/06/23 06:42:34;;;;;;;33.15;30.52;;;16.80;99.90;;;;;;5055700;28;20043;-79
2023/06/23 06:44:59;;;;;;;35.65;32.80;;;17.00;99.90;;;;;;5073100;28;20115;-79
2023/06/23 06:47:28;;;;;;;34.53;32.05;;;17.10;99.90;;;;;;5071611;28;20127;-79
2023/06/23 06:49:56;;;;;;;33.33;30.73;;;17.30;99.90;;;;;;5088733;28;20044;-79
2023/06/23 06:52:22;;;;;;;40.50;36.90;;;17.40;99.90;;;;;;5071404;28;20037;-78
2023/06/23 06:54:48;;;;;;;33.88;31.23;;;17.40;97.40;;;;;;5054568;28;20132;-81
2023/06/23 06:57:14;;;;;;;35.17;32.33;;;17.60;99.40;;;;;;5090489;28;20111;-79
2023/06/23 06:59:41;;;;;;;30.30;27.55;;;17.80;98.60;;;;;;5069098;28;20120;-80
2023/06/23 07:02:09;;;;;;;33.08;30.00;;;17.90;95.90;;;;;;5079067;28;20036;-78
2023/06/23 07:04:35;;;;;;;88.03;67.07;;;18.00;96.60;;;;;;5071472;28;20494;-79
2023/06/23 07:07:01;;;;;;;32.92;30.02;;;18.10;94.00;;;;;;5087730;28;20509;-79
2023/06/23 07:09:26;;;;;;;34.13;31.13;;;18.30;95.20;;;;;;5071676;28;20029;-78
2023/06/23 07:11:57;;;;;;;33.40;30.55;;;18.60;94.70;;;;;;5052720;28;20032;-79
2023/06/23 07:14:23;;;;;;;31.08;28.40;;;18.90;94.50;;;;;;5089035;28;20036;-79
2023/06/23 07:16:49;;;;;;;35.75;32.55;;;19.00;93.30;;;;;;5072400;28;20455;-77
2023/06/23 07:19:14;;;;;;;31.20;28.52;;;18.90;91.10;;;;;;5074484;28;20571;-76
2023/06/23 07:21:40;;;;;;;31.33;28.23;;;18.90;91.00;;;;;;5076609;28;20490;-77
2023/06/23 07:24:06;;;;;;;29.48;26.80;;;19.00;90.40;;;;;;5072551;28;20085;-76
2023/06/23 07:26:33;;;;;;;36.35;33.15;;;19.40;89.70;;;;;;5073798;28;20040;-77
2023/06/23 07:28:58;;;;;;;29.83;26.77;;;19.70;87.00;;;;;;5089926;28;20547;-76
2023/06/23 07:31:25;;;;;;;28.48;25.83;;;19.40;85.00;;;;;;5076468;28;20118;-77
2023/06/23 07:33:51;;;;;;;29.38;26.73;;;19.40;85.70;;;;;;5072060;28;20047;-77
2023/06/23 07:36:17;;;;;;;32.47;29.55;;;19.40;86.50;;;;;;5069338;28;20016;-77
2023/06/23 07:38:43;;;;;;;28.20;25.45;;;19.40;86.50;;;;;;5071028;28;20044;-77
2023/06/23 07:41:08;;;;;;;28.48;25.75;;;19.50;86.50;;;;;;5058517;28;20211;-77
2023/06/23 07:43:34;;;;;;;28.33;25.75;;;19.50;85.80;;;;;;5070361;28;20419;-76
2023/06/23 07:46:00;;;;;;;29.42;26.92;;;19.00;85.30;;;;;;5075131;28;20063;-77
2023/06/23 07:48:26;;;;;;;30.38;27.90;;;19.70;87.10;;;;;;5074522;28;20032;-77
2023/06/23 07:50:51;;;;;;;28.23;25.38;;;19.90;78.70;;;;;;5069956;28;20108;-75
2023/06/23 07:53:17;;;;;;;36.65;33.55;;;20.00;83.60;;;;;;5070927;28;20059;-76
2023/06/23 07:55:42;;;;;;;30.60;27.65;;;19.90;78.80;;;;;;5054698;28;20028;-77
2023/06/23 07:58:08;;;;;;;29.55;26.42;;;20.00;82.70;;;;;;5073330;28;20028;-77
2023/06/23 08:00:34;;;;;;;30.02;27.20;;;20.60;79.90;;;;;;5090284;28;20033;-75
2023/06/23 08:03:00;;;;;;;29.85;26.90;;;21.00;80.10;;;;;;5075349;28;20021;-76
2023/06/23 08:05:26;;;;;;;29.30;26.88;;;20.90;79.30;;;;;;5074038;28;20097;-77
2023/06/23 08:07:51;;;;;;;28.88;26.10;;;21.10;77.50;;;;;;5076204;28;20099;-76
2023/06/23 08:10:17;;;;;;;27.75;25.55;;;20.60;78.40;;;;;;5073861;28;20032;-76
2023/06/23 08:12:43;;;;;;;26.83;24.42;;;20.30;76.50;;;;;;5062706;28;20037;-76
2023/06/23 08:15:09;;;;;;;47.67;43.40;;;20.10;75.90;;;;;;5075102;28;20039;-76
2023/06/23 08:17:35;;;;;;;28.40;26.13;;;20.00;72.70;;;;;;5077346;28;20025;-76
2023/06/23 08:20:01;;;;;;;26.08;23.60;;;20.30;73.90;;;;;;5078706;28;20093;-76
2023/06/23 08:22:26;;;;;;;26.85;24.42;;;20.50;74.10;;;;;;5076804;28;20047;-76
2023/06/23 08:24:52;;;;;;;26.73;24.30;;;20.40;75.30;;;;;;5093156;28;20029;-77
2023/06/23 08:27:17;;;;;;;30.95;28.00;;;20.10;71.60;;;;;;5074018;28;20114;-76
2023/06/23 08:29:43;;;;;;;27.00;24.70;;;20.00;72.50;;;;;;5057175;28;20066;-76
2023/06/23 08:32:10;;;;;;;27.55;25.25;;;20.20;72.90;;;;;;5093599;28;21516;-76
2023/06/23 08:34:37;;;;;;;28.10;25.40;;;20.10;73.10;;;;;;5070909;28;20036;-77
2023/06/23 08:37:03;;;;;;;35.30;32.42;;;20.10;72.10;;;;;;5088378;28;20024;-76
2023/06/23 08:39:29;;;;;;;26.92;24.63;;;20.40;74.70;;;;;;5074085;28;20119;-76
2023/06/23 08:41:55;;;;;;;27.95;25.25;;;20.60;73.30;;;;;;5073266;28;20570;-76
2023/06/23 08:44:24;;;;;;;26.42;24.33;;;20.60;74.30;;;;;;5081697;28;20036;-76
2023/06/23 08:46:54;;;;;;;26.67;24.23;;;20.50;72.00;;;;;;5055163;28;20036;-76
2023/06/23 08:49:21;;;;;;;;;;;20.50;72.90;;;;;;5073885;28;20582;-76
2023/06/23 08:51:48;;;;;;;34.05;31.35;;;20.30;72.10;;;;;;5075239;28;19982;-76
2023/06/23 08:54:15;;;;;;;27.88;24.92;;;20.00;72.20;;;;;;5073224;28;20512;-76
2023/06/23 08:56:42;;;;;;;26.95;24.45;;;20.10;73.80;;;;;;5054925;28;20090;-76
2023/06/23 08:59:08;;;;;;;25.80;23.33;;;20.50;75.80;;;;;;5057959;28;20726;-76
2023/06/23 09:01:33;;;;;;;26.08;23.70;;;20.90;71.60;;;;;;5059177;28;20024;-76
2023/06/23 09:04:00;;;;;;;28.13;25.95;;;20.90;73.80;;;;;;5079170;28;20028;-76
2023/06/23 09:06:26;;;;;;;25.30;23.30;;;20.70;67.60;;;;;;5076252;28;20032;-76
2023/06/23 09:08:52;;;;;;;24.65;22.83;;;20.70;67.90;;;;;;5057326;28;20036;-77
2023/06/23 09:11:18;;;;;;;29.45;27.15;;;20.60;67.40;;;;;;5078990;28;20024;-76
2023/06/23 09:13:45;;;;;;;26.45;24.23;;;20.50;67.30;;;;;;5070048;28;20043;-76
2023/06/23 09:16:12;;;;;;;27.80;25.65;;;20.90;66.30;;;;;;5059727;28;20054;-76
2023/06/23 09:18:41;;;;;;;27.17;25.00;;;21.40;66.70;;;;;;5073154;28;20547;-76
2023/06/23 09:21:08;;;;;;;34.65;31.73;;;22.00;65.40;;;;;;5076274;28;20089;-76
2023/06/23 09:23:34;;;;;;;32.03;29.67;;;21.70;61.10;;;;;;5052878;28;20076;-76
2023/06/23 09:26:03;;;;;;;31.75;29.20;;;21.90;62.10;;;;;;5052356;28;20475;-76
2023/06/23 09:28:39;;;;;;;35.10;32.70;;;21.90;64.30;;;;;;5055210;28;20033;-76
2023/06/23 09:31:07;;;;;;;49.47;45.40;;;21.60;61.30;;;;;;5055437;28;20037;-76
2023/06/23 09:33:33;;;;;;;31.88;29.52;;;21.50;62.10;;;;;;5050000;28;20029;-76
2023/06/23 09:36:04;;;;;;;34.20;31.73;;;21.50;62.20;;;;;;5057105;28;20024;-76
2023/06/23 09:38:36;;;;;;;25.52;23.77;;;21.50;62.00;;;;;;5053064;28;20391;-76
2023/06/23 09:41:10;;;;;;;34.28;31.95;;;21.70;60.40;;;;;;5046594;28;20025;-76
2023/06/23 09:43:53;;;;;;;30.13;28.08;;;21.50;57.60;;;;;;5049284;28;20054;-76
2023/06/23 09:46:20;;;;;;;24.98;22.88;;;21.90;60.10;;;;;;5050698;28;20083;-76
2023/06/23 09:48:50;;;;;;;30.90;28.77;;;21.80;58.40;;;;;;5049298;28;20463;-76
2023/06/23 09:51:19;;;;;;;;;;;21.70;59.10;;;;;;5058003;28;20101;-76
2023/06/23 09:53:47;;;;;;;31.27;29.35;;;21.90;57.20;;;;;;5050749;28;19985;-76
2023/06/23 09:56:22;;;;;;;90.97;86.63;;;21.80;58.50;;;;;;5056993;28;20039;-76
2023/06/23 09:58:49;;;;;;;37.55;35.28;;;21.90;55.30;;;;;;5036064;28;20056;-76
2023/06/23 10:01:17;;;;;;;86.57;82.13;;;22.20;57.00;;;;;;5053910;28;20017;-76
2023/06/23 10:03:53;;;;;;;72.28;68.57;;;22.30;54.80;;;;;;5050513;28;20032;-76
2023/06/23 10:06:22;;;;;;;37.17;34.95;;;22.40;53.00;;;;;;5052779;28;20017;-76
2023/06/23 10:08:51;;;;;;;96.03;91.35;;;22.70;54.50;;;;;;5052760;28;20043;-76
2023/06/23 10:11:34;;;;;;;91.05;85.35;;;22.50;53.00;;;;;;5054773;28;20104;-75
2023/06/23 10:14:05;;;;;;;102.22;97.38;;;22.50;51.20;;;;;;5051578;28;20480;-76
2023/06/23 10:16:32;;;;;;;142.15;134.43;;;22.70;50.60;;;;;;5054640;28;20037;-76
2023/06/23 10:18:58;;;;;;;75.40;72.07;;;22.70;50.00;;;;;;5053880;28;20442;-76
2023/06/23 10:21:24;;;;;;;84.97;81.65;;;22.60;49.30;;;;;;5051623;28;20052;-76
2023/06/23 10:23:54;;;;;;;84.07;80.28;;;22.80;50.70;;;;;;5075435;28;20682;-76
2023/06/23 10:26:21;;;;;;;71.90;68.53;;;22.80;49.50;;;;;;5074327;28;20395;-75
2023/06/23 10:28:49;;;;;;;120.95;116.07;;;22.80;49.00;;;;;;5071795;28;20032;-75
2023/06/23 10:31:17;;;;;;;78.95;75.28;;;23.00;48.10;;;;;;5071939;28;20443;-76
2023/06/23 10:33:45;;;;;;;124.20;118.82;;;23.30;51.00;;;;;;5077352;28;20020;-76
2023/06/23 10:36:16;;;;;;;86.03;81.78;;;23.20;47.20;;;;;;5072470;28;20380;-81
2023/06/23 10:38:45;;;;;;;106.47;102.20;;;23.20;51.80;;;;;;5069564;28;20033;-76
2023/06/23 10:41:11;;;;;;;142.38;135.68;;;23.60;49.20;;;;;;5072410;28;20048;-76
2023/06/23 10:43:41;;;;;;;169.95;162.07;;;23.80;45.10;;;;;;5071027;28;20029;-76
2023/06/23 10:46:07;;;;;;;150.27;144.20;;;23.40;45.70;;;;;;5075224;28;20032;-76
2023/06/23 10:48:33;;;;;;;152.73;145.65;;;23.30;47.30;;;;;;5075950;28;20119;-76
2023/06/23 10:50:59;;;;;;;146.82;140.60;;;22.90;47.20;;;;;;5080704;28;20035;-75
2023/06/23 10:53:30;;;;;;;249.45;237.40;;;22.20;47.90;;;;;;5089652;28;20124;-76
2023/06/23 10:55:58;;;;;;;299.67;286.73;;;21.70;47.10;;;;;;5054527;28;20032;-75
2023/06/23 10:58:25;;;;;;;282.35;267.02;;;21.60;47.20;;;;;;5055727;28;20031;-76
2023/06/23 11:00:54;;;;;;;204.45;196.77;;;21.70;48.20;;;;;;5074977;28;20417;-75
2023/06/23 11:03:33;;;;;;;225.48;215.80;;;21.90;48.30;;;;;;5072682;28;20016;-75
2023/06/23 11:06:03;;;;;;;327.25;313.92;;;22.80;46.30;;;;;;5070738;28;20028;-76
2023/06/23 11:08:32;;;;;;;630.38;599.10;;;23.80;42.20;;;;;;5075438;28;20528;-75
2023/06/23 11:11:05;;;;;;;1999.90;999.90;;;24.20;40.20;;;;;;5073777;28;20024;-75
2023/06/23 11:13:51;;;;;;;1999.90;999.90;;;24.30;38.10;;;;;;5072338;28;20024;-75
2023/06/23 11:16:31;;;;;;;1999.90;999.90;;;25.50;37.40;;;;;;5072624;28;20078;-76
2023/06/23 11:18:57;;;;;;;1999.90;999.90;;;25.80;37.10;;;;;;5069231;28;20394;-75
2023/06/23 11:21:27;;;;;;;1999.90;999.90;;;24.30;40.50;;;;;;5072131;28;20448;-76
2023/06/23 11:24:11;;;;;;;1999.90;999.90;;;24.40;40.20;;;;;;5071545;28;20029;-76
2023/06/23 11:27:01;;;;;;;1999.90;999.90;;;23.90;43.40;;;;;;5074074;28;20278;-75
2023/06/23 11:29:27;;;;;;;1999.90;999.90;;;24.20;40.00;;;;;;5031762;28;20068;-76
2023/06/23 11:32:05;;;;;;;1999.90;999.90;;;24.80;40.90;;;;;;5073594;28;20387;-76
2023/06/23 11:34:52;;;;;;;1999.90;999.90;;;25.50;36.70;;;;;;5073787;28;20786;-76
2023/06/23 11:37:18;;;;;;;1999.90;999.90;;;25.30;36.80;;;;;;5074411;28;20562;-75
2023/06/23 11:39:44;;;;;;;1999.90;999.90;;;24.90;36.70;;;;;;5074121;28;20020;-76
2023/06/23 11:42:10;;;;;;;1999.90;999.90;;;24.20;36.70;;;;;;5072232;28;20043;-76
2023/06/23 11:44:36;;;;;;;1999.90;999.90;;;23.80;39.40;;;;;;5077757;28;20032;-76
2023/06/23 11:47:02;;;;;;;1999.90;999.90;;;25.50;37.50;;;;;;5093552;28;20032;-76
2023/06/23 11:49:28;;;;;;;1999.90;999.90;;;26.60;36.40;;;;;;5077876;28;20032;-76
2023/06/23 11:52:02;;;;;;;1999.90;999.90;;;26.80;35.50;;;;;;5078254;28;20119;-76
2023/06/23 11:54:33;;;;;;;1999.90;999.90;;;26.10;37.10;;;;;;5072594;28;20032;-76
2023/06/23 11:57:02;;;;;;;1999.90;999.90;;;26.60;35.50;;;;;;5080270;28;20077;-76
2023/06/23 11:59:35;;;;;;;1999.90;999.90;;;26.40;36.50;;;;;;5075923;28;20107;-77
2023/06/23 12:02:01;;;;;;;1999.90;999.90;;;26.30;35.50;;;;;;5059517;28;20656;-75
2023/06/23 12:04:27;;;;;;;1999.90;999.90;;;26.00;35.80;;;;;;5078611;28;20032;-75
2023/06/23 12:06:53;;;;;;;1999.90;999.90;;;26.40;35.70;;;;;;5057221;28;20050;-75
2023/06/23 12:09:22;;;;;;;1999.90;999.90;;;26.20;33.00;;;;;;5077547;28;20044;-76
2023/06/23 12:11:48;;;;;;;1999.90;999.90;;;26.60;31.70;;;;;;5080166;28;20029;-75
2023/06/23 12:14:14;;;;;;;1999.90;999.90;;;26.70;33.00;;;;;;5073836;28;20800;-76
2023/06/23 12:16:40;;;;;;;1999.90;999.90;;;27.60;33.20;;;;;;5059256;28;20791;-75
2023/06/23 12:19:05;;;;;;;1999.90;999.90;;;27.60;31.70;;;;;;5078184;28;20032;-76
2023/06/23 12:21:33;;;;;;;1999.90;999.90;;;27.70;33.90;;;;;;5096660;28;20048;-76
2023/06/23 12:23:59;;;;;;;1999.90;999.90;;;26.70;33.20;;;;;;5062044;28;20044;-76
2023/06/23 12:26:25;;;;;;;1999.90;999.90;;;26.50;33.60;;;;;;5073402;28;20142;-76
2023/06/23 12:28:50;;;;;;;1999.90;999.90;;;26.80;33.70;;;;;;5077069;28;20574;-75
2023/06/23 12:31:26;;;;;;;1999.90;999.90;;;28.20;33.80;;;;;;5093334;28;20526;-76
2023/06/23 12:33:52;;;;;;;1999.90;999.90;;;29.00;28.60;;;;;;5077000;28;20028;-76